Pagina principale
METAR-TAF:

METAR-TAF

Aeroporti :

Air Force Base Waterkloof

Waterkloof, Sudafrica

latitudine: 25-50S, longitudine: 028-13E, altezza: 1498 m

Osservazione

Il bollettino è stato emesso 27 minuti fa, alle 01:00 UTC
Vento 8 kt da est/nord-est
Temperature
Pressione 1021 hPa

METAR: FAWK 190100Z AUTO 06008KT //// // ////// ///// Q1021

Ora: 03:27 (01:27 UTC)

Previsione

Il bollettino è stato emesso 16 ore e 27 minuti fa, alle 09:00 UTC
Previsione valida dal 18 alle 10 UTC al 18 alle 18 UTC
Vento 12 kt da nord/nord-ovest
Visibilità 10 km o più
nessuna nube inferiore a 1500 m e nessun cumulonembo
Evoluzione graduale
dal 18 alle 16 UTC al 18 alle 18 UTC
Vento 5 kt da est/nord-est

TAF: FAWK 180900Z 1810/1818 33012KT CAVOK BECMG 1816/1818 07005KT TX34/1812Z TN23/1818Z

Osservazioni e previsioni meteorologiche di più di 4000 aeroporti (messaggi METAR e TAF).

Le stazioni disponibili sono rappresentate dai dischi gialli e rossi sulla carta.

Puntare il mouse per vedere il nome della stazione.

Clicca sopra per visualizzare le osservazioni e previsioni meteorologiche.

Per cambiare la mappa : fare clic sui pulsanti verdi con una croce nera per ingrandire, il pulsante verde con un trattino per diminuire, o sulla freccia verde per le mappe adiacenti.


METAR-TAF: